Terminal Aerodrome Forecast
Issued by NWS

Home | Current Version | Previous Version | Graphics & Text | Print | Product List | Glossary On
Versions: 1 2 3 4 5 6 7 8 9 10 11 12
000
FTUS45 KGGW 231121
TAFSDY
TAF
KSDY 231121Z 2312/2412 VRB03KT P6SM FEW120
     FM240500 15006KT P6SM FEW210 WS020/16035KT=

USA.gov is the U.S. government's official web portal to all federal, state and local government web resources and services.